Time;durP1;ratioP1;P1;durP2;ratioP2;P2;SDS_P1;SDS_P2;PMS_P1;PMS_P2;Temp;Humidity;BMP_temperature;BMP_pressure;BME280_temperature;BME280_humidity;BME280_pressure;Samples;Min_cycle;Max_cycle;Signal;HPM_P1;HPM_P2
2022/03/28 04:00:59;;;;;;;15.50;10.17;;;7.40;99.90;;;;;;5761317;23;20504;-81
2022/03/28 04:03:26;;;;;;;16.53;10.17;;;7.40;99.90;;;;;;4972786;28;20461;-81
2022/03/28 04:05:53;;;;;;;21.33;10.90;;;7.30;99.90;;;;;;4972240;28;20505;-81
2022/03/28 04:08:20;;;;;;;18.57;10.30;;;7.20;99.90;;;;;;4980324;28;20896;-82
2022/03/28 04:10:47;;;;;;;15.27;10.90;;;7.20;99.90;;;;;;4978565;28;20472;-81
2022/03/28 04:13:14;;;;;;;15.30;10.27;;;7.00;99.90;;;;;;4983743;28;20521;-81
2022/03/28 04:15:41;;;;;;;14.57;9.50;;;7.00;99.90;;;;;;4991911;28;20464;-81
2022/03/28 04:18:09;;;;;;;15.30;10.07;;;7.00;99.90;;;;;;4992146;28;20871;-82
2022/03/28 04:20:36;;;;;;;14.77;9.70;;;7.10;99.90;;;;;;4987462;28;20488;-81
2022/03/28 04:23:03;;;;;;;13.50;9.30;;;7.10;99.90;;;;;;4980339;28;20516;-81
2022/03/28 04:25:30;;;;;;;16.77;10.17;;;7.20;99.90;;;;;;4991382;28;20494;-81
2022/03/28 04:27:57;;;;;;;14.57;10.23;;;7.20;99.90;;;;;;4983563;28;20724;-82
2022/03/28 04:30:24;;;;;;;22.73;11.00;;;7.20;99.90;;;;;;4992812;28;20456;-81
2022/03/28 04:32:51;;;;;;;18.13;10.37;;;7.20;99.90;;;;;;4992363;28;20451;-82
2022/03/28 04:35:20;;;;;;;19.80;10.07;;;7.10;99.90;;;;;;4986622;28;20452;-81
2022/03/28 04:37:47;;;;;;;14.70;9.90;;;7.00;99.90;;;;;;4977013;28;20548;-81
2022/03/28 04:40:15;;;;;;;15.83;10.00;;;7.00;99.90;;;;;;4981628;28;20451;-82
2022/03/28 04:42:42;;;;;;;19.50;10.80;;;7.00;99.90;;;;;;4991235;28;20502;-81
2022/03/28 04:45:10;;;;;;;17.67;9.87;;;7.00;99.90;;;;;;4991719;28;20563;-81
2022/03/28 04:47:37;;;;;;;18.47;10.37;;;6.90;99.90;;;;;;4991233;28;20458;-81
2022/03/28 04:50:05;;;;;;;15.37;9.87;;;6.90;99.90;;;;;;4991919;28;21004;-81
2022/03/28 04:52:34;;;;;;;17.87;10.83;;;6.90;99.90;;;;;;4991612;28;20483;-82
2022/03/28 04:55:01;;;;;;;21.37;10.80;;;6.80;99.90;;;;;;4992211;28;20546;-81
2022/03/28 04:57:27;;;;;;;17.30;10.80;;;6.80;99.90;;;;;;4989693;28;20550;-81
2022/03/28 04:59:54;;;;;;;13.50;10.37;;;6.80;99.90;;;;;;4991272;28;20459;-81
2022/03/28 05:02:21;;;;;;;14.30;9.20;;;6.70;99.90;;;;;;4991366;28;20495;-81
2022/03/28 05:04:49;;;;;;;16.73;10.93;;;6.70;99.90;;;;;;4988876;28;20483;-68
2022/03/28 05:07:24;;;;;;;14.53;9.67;;;6.70;99.90;;;;;;4986169;28;20451;-67
2022/03/28 05:09:53;;;;;;;16.57;9.97;;;6.50;99.90;;;;;;4987012;28;20452;-67
2022/03/28 05:12:20;;;;;;;19.63;12.27;;;6.50;99.90;;;;;;4987413;28;20511;-67
2022/03/28 05:14:47;;;;;;;21.70;10.70;;;6.50;99.90;;;;;;4987690;28;20459;-67
2022/03/28 05:17:15;;;;;;;16.20;10.27;;;6.50;99.90;;;;;;4986535;28;20460;-68
2022/03/28 05:19:42;;;;;;;15.20;10.73;;;6.50;99.90;;;;;;4982845;28;20460;-68
2022/03/28 05:22:09;;;;;;;17.90;11.00;;;6.50;99.90;;;;;;4971518;28;20468;-78
2022/03/28 05:24:36;;;;;;;19.20;11.67;;;6.50;99.90;;;;;;4969722;28;20515;-79
2022/03/28 05:27:04;;;;;;;21.20;12.50;;;6.60;99.90;;;;;;4969103;28;20452;-82
2022/03/28 05:29:31;;;;;;;21.13;11.43;;;6.60;99.90;;;;;;4950453;29;20471;-84
2022/03/28 05:31:58;;;;;;;19.07;11.67;;;6.50;99.90;;;;;;4950599;28;21020;-79
2022/03/28 05:34:25;;;;;;;24.27;11.77;;;6.50;99.90;;;;;;4950779;29;20825;-79
2022/03/28 05:36:52;;;;;;;19.07;12.03;;;6.50;99.90;;;;;;4949930;29;20544;-80
2022/03/28 05:39:19;;;;;;;18.37;12.20;;;6.40;99.90;;;;;;4950542;29;20453;-83
2022/03/28 05:41:46;;;;;;;17.30;11.20;;;6.40;99.90;;;;;;4952318;28;20969;-81
2022/03/28 05:44:14;;;;;;;20.87;12.00;;;6.40;99.90;;;;;;4951932;29;20568;-79
2022/03/28 05:46:41;;;;;;;22.73;11.87;;;6.40;99.90;;;;;;4950393;28;20500;-81
2022/03/28 05:49:08;;;;;;;19.63;12.80;;;6.50;99.90;;;;;;4950917;29;20461;-81
2022/03/28 05:51:35;;;;;;;29.20;14.37;;;6.50;99.90;;;;;;4950727;28;20556;-79
2022/03/28 05:54:02;;;;;;;22.43;13.87;;;6.40;99.90;;;;;;4950586;29;20461;-79
2022/03/28 05:56:29;;;;;;;23.57;12.23;;;6.40;99.90;;;;;;4949708;29;20953;-78
2022/03/28 05:58:56;;;;;;;22.27;12.40;;;6.50;99.90;;;;;;4950772;29;20483;-80
2022/03/28 06:01:25;;;;;;;16.73;11.63;;;6.40;99.90;;;;;;4950307;28;20524;-79
2022/03/28 06:03:52;;;;;;;19.57;11.57;;;6.40;99.90;;;;;;4950348;29;20458;-80
2022/03/28 06:06:18;;;;;;;21.77;11.37;;;6.50;99.90;;;;;;4950185;29;20500;-80
2022/03/28 06:08:45;;;;;;;22.40;12.40;;;6.50;99.90;;;;;;4950164;28;20461;-79
2022/03/28 06:11:12;;;;;;;17.27;11.47;;;6.50;99.90;;;;;;4950786;28;20994;-80
2022/03/28 06:13:39;;;;;;;18.60;10.57;;;6.50;99.90;;;;;;4950642;29;20457;-80
2022/03/28 06:16:06;;;;;;;17.37;11.53;;;6.50;99.90;;;;;;4950037;29;20528;-79
2022/03/28 06:18:34;;;;;;;22.43;12.60;;;6.50;99.90;;;;;;4950237;29;20536;-78
2022/03/28 06:21:01;;;;;;;16.80;11.33;;;6.60;99.90;;;;;;4950164;28;20483;-79
2022/03/28 06:23:28;;;;;;;18.43;11.43;;;6.60;99.90;;;;;;4950386;29;20548;-79
2022/03/28 06:25:55;;;;;;;16.53;11.40;;;6.70;99.90;;;;;;4950456;29;20497;-80
2022/03/28 06:28:23;;;;;;;18.03;10.33;;;6.70;99.90;;;23.47;0.00;147136.53;4949751;29;20501;-79
2022/03/28 06:30:49;;;;;;;17.20;11.00;;;6.70;99.90;;;;;;4950291;28;20476;-79
2022/03/28 06:33:16;;;;;;;16.30;10.53;;;6.80;99.90;;;;;;4949897;29;21158;-84
2022/03/28 06:35:45;;;;;;;21.93;11.87;;;6.90;99.90;;;;;;4950133;29;20540;-78
2022/03/28 06:38:12;;;;;;;27.17;12.70;;;6.90;99.90;;;;;;4950012;28;20512;-77
2022/03/28 06:40:39;;;;;;;22.37;11.90;;;6.90;99.90;;;;;;4949052;28;20978;-77
2022/03/28 06:43:06;;;;;;;24.87;13.87;;;6.90;99.90;;;;;;4949071;29;21025;-78
2022/03/28 06:45:34;;;;;;;26.73;13.23;;;7.00;99.90;;;;;;4949263;28;21017;-77
2022/03/28 06:48:00;;;;;;;25.83;14.13;;;7.00;99.90;;;;;;4948575;29;21032;-77
2022/03/28 06:50:27;;;;;;;25.10;14.13;;;7.10;99.90;;;;;;4949297;28;20489;-77
2022/03/28 06:52:56;;;;;;;29.43;14.77;;;7.10;99.90;;;;;;4949819;29;20466;-78
2022/03/28 06:55:23;;;;;;;34.87;17.40;;;7.20;99.90;;;;;;4946377;29;20446;-78
2022/03/28 06:57:51;;;;;;;32.50;16.80;;;7.30;99.90;;;;;;4945754;28;20516;-78
2022/03/28 07:00:19;;;;;;;26.70;14.30;;;7.30;99.90;;;;;;4947089;28;20513;-77
2022/03/28 07:02:46;;;;;;;24.90;14.80;;;7.30;99.90;;;;;;4947036;28;20536;-78
2022/03/28 07:05:13;;;;;;;22.60;13.60;;;7.40;99.90;;;;;;4946849;29;20975;-81
2022/03/28 07:07:42;;;;;;;24.87;12.80;;;7.50;99.90;;;;;;4946732;29;20548;-79
2022/03/28 07:10:12;;;;;;;21.80;13.10;;;7.60;99.90;;;;;;4947275;29;20469;-78
2022/03/28 07:12:39;;;;;;;20.53;13.03;;;7.70;99.90;;;;;;4947541;29;20464;-78
2022/03/28 07:15:07;;;;;;;19.87;12.40;;;7.70;99.90;;;;;;4949001;29;20460;-79
2022/03/28 07:17:46;;;;;;;21.23;12.50;;;7.80;99.90;;;;;;4949377;28;20562;-79
2022/03/28 07:20:13;;;;;;;17.57;12.20;;;7.90;99.90;;;;;;4950451;28;20982;-79
2022/03/28 07:22:40;;;;;;;25.50;12.77;;;8.00;99.90;;;;;;4953858;29;20453;-78
2022/03/28 07:25:08;;;;;;;23.10;12.37;;;8.20;99.90;;;;;;4953840;29;20461;-78
2022/03/28 07:27:38;;;;;;;21.00;13.67;;;8.20;99.90;;;;;;4952924;28;20492;-79
2022/03/28 07:30:07;;;;;;;23.43;13.60;;;8.20;99.90;;;;;;4953939;29;20445;-79
2022/03/28 07:32:34;;;;;;;21.17;12.53;;;8.40;99.90;;;;;;4953543;28;20477;-79
2022/03/28 07:35:01;;;;;;;25.10;12.30;;;8.40;99.90;;;;;;4953217;28;20496;-81
2022/03/28 07:37:28;;;;;;;23.45;13.75;;;8.50;99.90;;;;;;4952101;29;20439;-80
2022/03/28 07:39:56;;;;;;;23.33;13.00;;;8.90;99.90;;;;;;4953341;29;20221;-79
2022/03/28 07:42:23;;;;;;;19.90;12.33;;;9.00;99.90;;;;;;4953086;28;20481;-79
2022/03/28 07:44:56;;;;;;;20.60;12.00;;;9.10;99.90;;;;;;4953728;29;20453;-79
2022/03/28 07:47:25;;;;;;;21.27;12.13;;;9.20;99.90;;;;;;4953372;29;20477;-78
2022/03/28 07:49:52;;;;;;;22.37;11.73;;;9.20;99.90;;;;;;4953321;29;21167;-80
2022/03/28 07:52:19;;;;;;;21.57;11.93;;;9.30;99.90;;;;;;4953351;28;20481;-79
2022/03/28 07:54:46;;;;;;;24.27;11.80;;;9.40;99.90;;;;;;4953279;28;20468;-79
2022/03/28 07:57:14;;;;;;;21.47;12.83;;;9.50;99.90;;;;;;4953185;29;20449;-78
2022/03/28 07:59:41;;;;;;;24.77;11.57;;;9.60;99.90;;;;;;4953201;29;20556;-79
2022/03/28 08:02:09;;;;;;;21.90;12.70;;;9.80;99.90;;;;;;4951380;28;20934;-66
2022/03/28 08:04:37;;;;;;;23.43;13.63;;;9.90;99.90;;;;;;4950703;29;20465;-73
2022/03/28 08:07:05;;;;;;;23.40;12.97;;;10.00;99.90;;;;;;4949360;28;20493;-74
2022/03/28 08:09:32;;;;;;;17.07;11.70;;;10.20;99.90;;;;;;4949849;29;20465;-76
2022/03/28 08:12:00;;;;;;;25.50;12.80;;;10.30;99.90;;;;;;4949239;28;20572;-74
2022/03/28 08:14:27;;;;;;;22.50;12.70;;;10.50;99.90;;;;;;4949466;29;20867;-74
2022/03/28 08:16:54;;;;;;;23.63;12.93;;;10.60;99.90;;;;;;4948869;29;20456;-74
2022/03/28 08:19:22;;;;;;;21.30;12.07;;;10.80;99.90;;;;;;4949725;29;20457;-73
2022/03/28 08:21:50;;;;;;;19.90;13.90;;;10.90;99.90;;;;;;4952535;28;20853;-84
2022/03/28 08:24:18;;;;;;;25.63;13.30;;;11.10;99.90;;;;;;4954352;28;20949;-80
2022/03/28 08:26:46;;;;;;;23.47;13.87;;;11.20;99.90;;;;;;4953602;29;20496;-84
2022/03/28 08:29:13;;;;;;;19.60;12.67;;;11.30;99.90;;;;;;4954295;28;20942;-82
2022/03/28 08:31:40;;;;;;;26.90;14.90;;;11.50;99.90;;;;;;4953974;28;20487;-82
2022/03/28 08:34:07;;;;;;;24.40;14.17;;;11.60;99.90;;;;;;4955104;28;20454;-81
2022/03/28 08:36:37;;;;;;;25.70;13.67;;;11.80;99.90;;;;;;4954529;29;20458;-81
2022/03/28 08:39:05;;;;;;;28.73;14.57;;;11.90;99.90;;;;;;4954618;28;20461;-81
2022/03/28 08:41:33;;;;;;;24.10;14.57;;;12.10;99.90;;;;;;4954460;28;20940;-85
2022/03/28 08:44:00;;;;;;;25.77;15.40;;;12.20;99.90;;;;;;4954503;29;20979;-81
2022/03/28 08:46:28;;;;;;;20.77;12.00;;;12.30;99.90;;;;;;4953106;29;20497;-81
2022/03/28 08:48:57;;;;;;;24.40;13.60;;;12.50;99.90;;;;;;4952212;29;20528;-82
2022/03/28 08:51:24;;;;;;;22.57;12.83;;;12.70;99.90;;;;;;4951509;28;20486;-81
2022/03/28 08:53:53;;;;;;;25.03;12.93;;;12.80;99.50;;;;;;4951573;28;20465;-79
2022/03/28 08:56:19;;;;;;;22.03;12.90;;;13.00;99.90;;;;;;4951091;29;20453;-79
2022/03/28 08:58:46;;;;;;;23.40;13.63;;;13.30;99.80;;;;;;4951623;29;20880;-82
2022/03/28 09:01:13;;;;;;;25.57;13.93;;;13.40;98.60;;;;;;4951974;28;20576;-80
2022/03/28 09:03:44;;;;;;;27.27;13.60;;;13.50;98.70;;;;;;4952422;29;20493;-80
2022/03/28 09:06:29;;;;;;;25.00;13.80;;;13.60;98.40;;;;;;4952969;28;20495;-81
2022/03/28 09:09:13;;;;;;;23.17;14.00;;;13.70;98.10;;;;;;4953776;28;20453;-82
2022/03/28 09:11:42;;;;;;;23.17;12.63;;;13.70;99.00;;;;;;4952645;28;20571;-80
2022/03/28 09:14:12;;;;;;;22.33;12.90;;;13.90;99.50;;;;;;4954282;28;20472;-81
2022/03/28 09:16:40;;;;;;;25.77;14.50;;;14.10;99.40;;;;;;4954282;29;20458;-83
2022/03/28 09:19:14;;;;;;;20.93;13.00;;;14.30;97.70;;;;;;4954774;28;20457;-80
2022/03/28 09:21:51;;;;;;;24.57;14.33;;;14.40;97.40;;;;;;4954695;28;21341;-81
2022/03/28 09:24:19;;;;;;;26.60;14.73;;;14.40;97.50;;;;;;4955648;29;20433;-80
2022/03/28 09:26:46;;;;;;;32.90;14.27;;;14.60;97.30;;;;;;4954261;29;20512;-81
2022/03/28 09:29:13;;;;;;;31.03;14.80;;;14.70;97.10;;;;;;4950146;29;20524;-79
2022/03/28 09:31:42;;;;;;;24.83;14.63;;;14.80;97.10;;;;;;4950526;28;20564;-79
2022/03/28 09:34:12;;;;;;;29.73;15.10;;;15.00;97.00;;;;;;4950814;29;20554;-80
2022/03/28 09:36:44;;;;;;;24.37;14.20;;;15.10;95.80;;;;;;4949776;28;20828;-80
2022/03/28 09:39:13;;;;;;;24.30;13.77;;;15.10;95.20;;;;;;4950691;29;20454;-81
2022/03/28 09:41:42;;;;;;;25.87;14.67;;;15.10;95.60;;;;;;4953759;28;20532;-83
2022/03/28 09:44:09;;;;;;;23.43;14.20;;;15.20;96.10;;;;;;4957420;28;20468;-82
2022/03/28 09:46:37;;;;;;;23.03;13.77;;;15.50;96.50;;;;;;4955604;29;20529;-81
2022/03/28 09:49:08;;;;;;;26.87;14.60;;;15.80;95.50;;;;;;4957740;28;20461;-82
2022/03/28 09:51:36;;;;;;;23.83;14.30;;;16.00;94.50;;;;;;4957312;28;20469;-82
2022/03/28 09:54:03;;;;;;;22.83;13.20;;;16.10;93.70;;;;;;4953584;29;20453;-68
2022/03/28 09:56:30;;;;;;;23.87;14.40;;;16.20;94.60;;;;;;4952216;29;20460;-80
2022/03/28 09:59:00;;;;;;;27.50;14.80;;;16.20;94.50;;;;;;4954796;28;20544;-80
2022/03/28 10:01:30;;;;;;;30.53;15.30;;;16.30;93.90;;;;;;4963841;28;20481;-81
2022/03/28 10:04:01;;;;;;;24.80;14.40;;;16.40;94.00;;;;;;4963465;28;20480;-80
2022/03/28 10:06:29;;;;;;;26.20;15.97;;;16.60;92.00;;;;;;4962697;29;20571;-82
2022/03/28 10:08:56;;;;;;;30.83;14.70;;;16.70;91.10;;;;;;4961825;29;20469;-82
2022/03/28 10:11:23;;;;;;;24.50;14.00;;;16.70;91.20;;;;;;4954588;28;21048;-79
2022/03/28 10:13:50;;;;;;;24.50;14.40;;;16.70;90.80;;;;;;4953978;29;21025;-79
2022/03/28 10:16:19;;;;;;;23.93;13.70;;;16.90;91.30;;;;;;4961689;29;20453;-82
2022/03/28 10:18:49;;;;;;;24.97;13.13;;;17.10;88.60;;;;;;4961835;29;20521;-81
2022/03/28 10:21:20;;;;;;;26.63;13.20;;;17.10;86.30;;;;;;4964759;28;20935;-81
2022/03/28 10:23:51;;;;;;;23.33;14.10;;;17.20;86.80;;;;;;4987686;28;20444;-79
2022/03/28 10:26:20;;;;;;;26.93;14.63;;;17.30;84.40;;;;;;4971873;28;20467;-79
2022/03/28 10:29:07;;;;;;;28.60;15.30;;;17.50;88.40;;;;;;4972293;28;20458;-79
2022/03/28 10:31:35;;;;;;;21.43;13.00;;;17.70;84.80;;;;;;4972306;28;20506;-81
2022/03/28 10:34:03;;;;;;;26.23;13.60;;;17.70;81.50;;;;;;4972407;28;20484;-80
2022/03/28 10:36:32;;;;;;;22.43;13.57;;;17.70;79.40;;;;;;4972152;28;20468;-80
2022/03/28 10:39:33;;;;;;;25.50;13.93;;;17.80;78.70;;;;;;4979802;28;20451;-80
2022/03/28 10:42:10;;;;;;;27.37;13.30;;;17.70;77.00;;;;;;4952283;28;20473;-81
2022/03/28 10:44:58;;;;;;;22.53;13.53;;;17.80;80.80;;;;;;4950914;29;20496;-80
2022/03/28 10:50:22;;;;;;;22.07;14.10;;;18.00;79.90;;;;;;5086906;27;20521;-79
2022/03/28 10:53:07;;;;;;;29.30;14.67;;;18.10;79.40;;;;;;5086993;28;20461;-80
2022/03/28 10:55:37;;;;;;;25.47;13.93;;;18.20;79.80;;;;;;5087241;28;20435;-80
2022/03/28 10:58:14;;;;;;;21.50;13.10;;;18.40;78.70;;;;;;5086849;28;20455;-81
2022/03/28 11:01:19;;;;;;;23.87;13.13;;;18.40;79.90;;;;;;5089010;28;20475;-81
2022/03/28 11:03:47;;;;;;;24.47;13.80;;;18.60;80.80;;;;;;5089991;28;20471;-81
2022/03/28 11:06:17;;;;;;;25.87;14.40;;;18.60;78.10;;;;;;5089678;28;20458;-80
2022/03/28 11:08:47;;;;;;;27.80;14.20;;;18.70;79.20;;;;;;5090873;28;20487;-80
2022/03/28 11:11:15;;;;;;;22.97;14.60;;;18.90;80.30;;;;;;5089871;28;20464;-80
2022/03/28 11:13:42;;;;;;;30.03;15.27;;;19.10;77.50;;;;;;5087469;28;20477;-79
2022/03/28 11:16:19;;;;;;;27.47;14.70;;;19.10;77.10;;;;;;5087904;28;20454;-79
2022/03/28 11:19:06;;;;;;;24.43;13.17;;;19.10;73.60;;;;;;5089946;28;20702;-80
2022/03/28 11:21:34;;;;;;;22.70;14.70;;;19.20;75.30;;;;;;5090270;28;21313;-82
2022/03/28 11:24:11;;;;;;;23.37;15.43;;;19.40;76.80;;;;;;5092609;28;20435;-80
2022/03/28 11:26:39;;;;;;;23.27;13.67;;;19.50;76.60;;;;;;5090486;28;20892;-80
2022/03/28 11:29:09;;;;;;;23.90;13.57;;;19.60;74.20;;;;;;5090491;28;20487;-80
2022/03/28 11:31:36;;;;;;;23.60;14.10;;;19.70;72.90;;;;;;5091005;28;20475;-80
2022/03/28 11:34:10;;;;;;;21.57;14.00;;;19.80;72.80;;;;;;5091643;28;20451;-80
2022/03/28 11:36:39;;;;;;;26.90;12.87;;;19.90;72.90;;;;;;5091868;28;20454;-80
2022/03/28 11:39:11;;;;;;;25.13;14.03;;;20.10;75.80;;;;;;5091506;28;20491;-80
2022/03/28 11:41:40;;;;;;;25.27;13.57;;;20.20;73.60;;;;;;5089662;28;21225;-79
2022/03/28 11:44:12;;;;;;;21.77;13.63;;;20.20;69.70;;;;;;5091971;28;20455;-80
2022/03/28 11:46:39;;;;;;;23.80;15.23;;;20.20;72.50;;;;;;5089180;28;20447;-80
2022/03/28 11:49:11;;;;;;;24.70;14.37;;;20.20;72.30;;;;;;5090870;28;20573;-80
2022/03/28 11:51:41;;;;;;;31.43;16.37;;;20.30;71.30;;;;;;5082219;28;20475;-77
2022/03/28 11:54:10;;;;;;;26.37;14.90;;;20.30;71.00;;;;;;5082142;28;20938;-77
2022/03/28 11:58:14;;;;;;;26.30;15.10;;;20.40;72.10;;;;;;5081424;28;20455;-77
2022/03/28 11:59:26;;;;;;;28.60;14.23;;;20.50;73.00;;;;;;5083304;28;20447;-78
2022/03/28 12:01:57;;;;;;;27.10;14.30;;;20.60;74.10;;;;;;5072866;28;20475;-78
2022/03/28 12:04:24;;;;;;;25.80;13.90;;;20.70;72.70;;;;;;5073040;28;20991;-78
2022/03/28 12:06:53;;;;;;;28.00;14.47;;;20.80;71.00;;;;;;5071428;28;20436;-78
2022/03/28 12:09:21;;;;;;;24.30;15.33;;;21.00;71.60;;;;;;5071118;28;20498;-78
2022/03/28 12:11:50;;;;;;;25.10;14.37;;;21.00;69.50;;;;;;5071149;28;20468;-79
2022/03/28 12:14:17;;;;;;;28.67;15.00;;;20.90;70.00;;;;;;5071107;28;20454;-79
2022/03/28 12:16:48;;;;;;;24.87;14.40;;;20.90;70.20;;;;;;5070332;28;20452;-79
2022/03/28 12:19:20;;;;;;;23.03;14.37;;;21.00;71.00;;;;;;5071784;28;21138;-78
2022/03/28 12:21:47;;;;;;;21.93;13.30;;;21.00;68.70;;;;;;5071456;28;20480;-78
2022/03/28 12:24:15;;;;;;;25.47;14.20;;;21.20;68.70;;;;;;5070083;28;20470;-80
2022/03/28 12:26:43;;;;;;;30.70;15.00;;;21.20;68.30;;;;;;5070877;28;20485;-80
2022/03/28 12:29:12;;;;;;;25.93;14.57;;;21.10;69.10;;;;;;5071991;28;20541;-80
2022/03/28 12:31:41;;;;;;;23.30;13.30;;;21.10;68.50;;;;;;5072230;28;20991;-80
2022/03/28 12:34:09;;;;;;;26.20;14.23;;;21.20;68.90;;;;;;5071875;28;20448;-79
2022/03/28 12:36:37;;;;;;;30.70;16.37;;;21.20;68.50;;;;;;5068998;28;20900;-80
2022/03/28 12:39:07;;;;;;;24.40;13.70;;;21.10;68.40;;;;;;5068593;28;20510;-80
2022/03/28 12:41:45;;;;;;;26.13;14.57;;;21.10;69.30;;;;;;5067892;28;20483;-81
2022/03/28 12:44:14;;;;;;;24.23;14.57;;;21.20;69.00;;;;;;5069035;28;20451;-79
2022/03/28 12:46:41;;;;;;;23.17;13.90;;;21.20;68.50;;;;;;5068524;28;20543;-79
2022/03/28 12:49:11;;;;;;;23.80;13.20;;;21.30;68.30;;;;;;5069213;28;20487;-80
2022/03/28 12:51:40;;;;;;;21.70;13.20;;;21.40;66.30;;;;;;5068643;28;20479;-80
2022/03/28 12:54:09;;;;;;;19.40;12.73;;;21.30;65.50;;;;;;5068681;28;20487;-79
2022/03/28 12:56:48;;;;;;;23.80;12.90;;;21.20;67.20;;;;;;5066839;28;20459;-79
2022/03/28 12:59:20;;;;;;;20.33;12.30;;;21.30;66.20;;;;;;5067151;28;20525;-79
2022/03/28 13:01:47;;;;;;;18.77;12.20;;;21.30;66.50;;;;;;5067333;28;20916;-79
2022/03/28 13:04:17;;;;;;;23.73;13.90;;;21.40;66.50;;;;;;5067137;28;20569;-79
2022/03/28 13:06:46;;;;;;;26.53;14.70;;;21.50;68.80;;;;;;5067691;28;20456;-79
2022/03/28 13:09:16;;;;;;;27.40;13.87;;;21.70;66.80;;;;;;5067421;28;20999;-79
2022/03/28 13:11:46;;;;;;;22.43;13.97;;;21.70;68.00;;;;;;5066476;28;20486;-79
2022/03/28 13:14:25;;;;;;;22.23;13.47;;;21.60;66.20;;;;;;5066977;28;20440;-79
2022/03/28 13:17:04;;;;;;;19.87;13.20;;;21.70;67.70;;;;;;5066650;28;20452;-79
2022/03/28 13:19:31;;;;;;;20.17;12.30;;;21.60;66.70;;;;;;5067752;28;20451;-79
2022/03/28 13:21:59;;;;;;;22.67;13.13;;;21.80;68.90;;;;;;5067205;28;20872;-79
2022/03/28 13:24:29;;;;;;;23.43;12.73;;;22.00;67.00;;;;;;5067479;28;20451;-79
2022/03/28 13:29:46;;;;;;;19.80;12.70;;;21.60;66.20;;;;;;5066724;28;20488;-81
2022/03/28 13:32:12;;;;;;;20.40;12.30;;;21.70;65.80;;;;;;5066672;28;20943;-79
2022/03/28 13:34:40;;;;;;;19.50;12.80;;;21.60;64.50;;;;;;5066553;28;20448;-79
2022/03/28 13:37:08;;;;;;;22.27;13.43;;;21.60;64.80;;;;;;5065869;28;20460;-79
2022/03/28 13:39:35;;;;;;;22.83;11.90;;;21.50;64.20;;;;;;5066078;28;20483;-80
2022/03/28 13:42:04;;;;;;;21.73;12.90;;;21.40;65.00;;;;;;5066320;28;20549;-79
2022/03/28 13:44:32;;;;;;;17.97;11.67;;;21.50;64.90;;;;;;5066084;28;21014;-79
2022/03/28 13:46:59;;;;;;;18.50;12.10;;;21.50;65.20;;;;;;5065704;28;20460;-78
2022/03/28 13:49:26;;;;;;;23.70;13.07;;;21.50;64.60;;;;;;5065929;28;20492;-79
2022/03/28 13:51:53;;;;;;;18.87;12.37;;;21.50;65.30;;;;;;5066328;28;21046;-78
2022/03/28 13:54:21;;;;;;;25.47;13.10;;;21.60;65.70;;;;;;5065628;28;20961;-79
2022/03/28 13:56:50;;;;;;;18.90;11.90;;;21.70;65.60;;;;;;5065778;28;20507;-79
2022/03/28 13:59:18;;;;;;;21.13;12.80;;;22.00;67.80;;;;;;5066972;28;20460;-79
2022/03/28 14:01:46;;;;;;;19.30;12.13;;;22.20;65.30;;;;;;5066296;28;20594;-79
2022/03/28 14:04:14;;;;;;;21.10;12.20;;;22.20;63.30;;;;;;5066165;28;20462;-79
2022/03/28 14:06:41;;;;;;;18.20;11.83;;;22.30;62.60;;;;;;5065409;28;20466;-78
2022/03/28 14:09:08;;;;;;;18.80;12.50;;;22.30;61.70;;;;;;5066004;28;20960;-79
2022/03/28 14:11:36;;;;;;;19.57;12.20;;;22.30;61.10;;;;;;5067754;28;20486;-79
2022/03/28 14:14:03;;;;;;;20.37;11.30;;;22.40;61.80;;;;;;5070221;28;20819;-79
2022/03/28 14:16:32;;;;;;;24.33;12.03;;;22.50;62.90;;;;;;5070801;28;20460;-79
2022/03/28 14:18:59;;;;;;;17.13;10.73;;;22.50;63.10;;;;;;5073411;28;20455;-79
2022/03/28 14:21:25;;;;;;;16.80;11.37;;;22.70;64.10;;;;;;5073825;28;20464;-79
2022/03/28 14:23:52;;;;;;;18.53;12.17;;;22.90;64.00;;;;;;5071939;28;20495;-79
2022/03/28 14:26:21;;;;;;;19.23;11.20;;;23.10;65.80;;;;;;5072758;28;20528;-79
2022/03/28 14:28:47;;;;;;;17.33;11.00;;;23.30;63.30;;;;;;5072476;28;20456;-79
2022/03/28 14:31:14;;;;;;;15.40;10.33;;;23.50;62.80;;;;;;5071831;28;20496;-80
2022/03/28 14:33:43;;;;;;;17.73;10.97;;;23.70;62.90;;;;;;5071108;28;20448;-79
2022/03/28 14:36:09;;;;;;;16.20;9.90;;;23.90;61.80;;;;;;5073885;28;20490;-79
2022/03/28 14:38:36;;;;;;;19.47;10.77;;;24.00;59.60;;;;;;5072052;28;20452;-79
2022/03/28 14:41:04;;;;;;;14.43;10.50;;;24.00;58.20;;;;;;5069128;28;20471;-78
2022/03/28 14:43:31;;;;;;;14.10;9.97;;;24.00;56.50;;;;;;5071003;28;20479;-81
2022/03/28 14:48:44;;;;;;;18.40;10.97;;;23.90;55.90;;;;;;5070874;28;20451;-80
2022/03/28 14:51:14;;;;;;;18.97;9.60;;;23.90;57.50;;;;;;5072440;28;20498;-80
2022/03/28 14:53:41;;;;;;;15.73;9.03;;;24.00;54.90;;;;;;5071072;28;20452;-80
2022/03/28 14:56:08;;;;;;;15.47;9.90;;;24.10;55.00;;;;;;5072638;28;20983;-80
2022/03/28 14:58:34;;;;;;;15.83;10.13;;;24.20;55.30;;;;;;5072996;28;20888;-80
2022/03/28 15:01:01;;;;;;;12.20;9.40;;;24.20;57.30;;;;;;5071443;28;20460;-80
2022/03/28 15:03:28;;;;;;;15.30;9.70;;;24.40;57.30;;;;;;5070930;28;21011;-79
2022/03/28 15:05:57;;;;;;;14.93;9.70;;;24.40;54.80;;;;;;5071043;28;20535;-79
2022/03/28 15:08:24;;;;;;;12.53;9.90;;;24.40;53.00;;;;;;5070157;28;20538;-82
2022/03/28 15:10:51;;;;;;;17.20;9.40;;;24.50;54.80;;;;;;5069609;28;20545;-82
2022/03/28 15:13:18;;;;;;;14.20;9.57;;;24.50;54.60;;;;;;5071264;28;20454;-84
2022/03/28 15:15:45;;;;;;;14.83;10.20;;;24.50;54.60;;;;;;5070493;28;20546;-80
2022/03/28 15:18:12;;;;;;;14.13;10.17;;;24.60;55.50;;;;;;5067938;28;20452;-80
2022/03/28 15:20:40;;;;;;;16.83;9.73;;;24.60;52.90;;;;;;5068566;28;20555;-81
2022/03/28 15:23:08;;;;;;;13.73;10.10;;;24.60;54.00;;;;;;5068307;28;20728;-81
2022/03/28 15:25:35;;;;;;;20.03;9.17;;;24.70;52.90;;;;;;5068022;28;20460;-81
2022/03/28 15:28:02;;;;;;;14.53;9.40;;;24.60;52.60;;;;;;5067718;28;20982;-80
2022/03/28 15:30:37;;;;;;;15.27;9.73;;;24.60;53.10;;;;;;5067916;28;20518;-81
2022/03/28 15:33:04;;;;;;;14.17;10.10;;;24.60;54.30;;;;;;5068335;28;20443;-82
2022/03/28 15:35:31;;;;;;;15.23;9.57;;;24.50;52.80;;;;;;5069234;28;20534;-81
2022/03/28 15:37:58;;;;;;;17.17;10.03;;;24.30;52.80;;;;;;5070955;28;20451;-80
2022/03/28 15:40:27;;;;;;;12.33;8.50;;;24.20;52.90;;;;;;5073227;28;20454;-81
2022/03/28 15:42:53;;;;;;;12.87;8.60;;;24.20;54.30;;;;;;5074298;28;20462;-82
2022/03/28 15:45:20;;;;;;;13.73;9.27;;;24.20;54.10;;;;;;5074580;28;20509;-81
2022/03/28 15:47:47;;;;;;;12.40;8.63;;;24.10;54.30;;;;;;5072355;28;20448;-82
2022/03/28 15:50:15;;;;;;;12.67;8.57;;;24.00;52.20;;;;;;5072916;28;20598;-83
2022/03/28 15:52:42;;;;;;;16.37;8.87;;;23.80;52.70;;;;;;5074052;28;20948;-81
2022/03/28 15:55:10;;;;;;;19.50;9.60;;;23.70;53.50;;;;;;5073515;28;20463;-81
2022/03/28 15:57:38;;;;;;;12.83;8.50;;;23.60;54.30;;;;;;5072534;28;20451;-80
2022/03/28 16:00:06;;;;;;;11.70;8.90;;;23.50;53.10;;;;;;5073500;28;20479;-81
2022/03/28 16:02:33;;;;;;;13.57;8.80;;;23.30;55.00;;;;;;5073958;28;20551;-82
2022/03/28 16:05:00;;;;;;;14.77;9.03;;;23.20;55.10;;;;;;5074206;28;20451;-81
2022/03/28 16:07:27;;;;;;;14.00;8.60;;;23.10;53.60;;;;;;5073613;28;20459;-80
2022/03/28 16:09:54;;;;;;;17.60;9.80;;;22.90;57.10;;;;;;5072294;28;20498;-80
2022/03/28 16:12:21;;;;;;;12.20;8.17;;;22.70;56.40;;;;;;5072735;28;20941;-81
2022/03/28 16:14:49;;;;;;;12.70;8.00;;;22.50;54.80;;;;;;5074101;28;21032;-83
2022/03/28 16:17:16;;;;;;;12.90;8.63;;;22.40;56.60;;;;;;5073027;28;20456;-82
2022/03/28 16:19:43;;;;;;;9.83;7.43;;;22.40;56.90;;;;;;5073983;28;20460;-82
2022/03/28 16:22:10;;;;;;;11.20;8.00;;;22.40;56.40;;;;;;5075504;28;20475;-81
2022/03/28 16:24:37;;;;;;;11.07;8.50;;;22.40;54.10;;;;;;5095205;28;20922;-80
2022/03/28 16:27:04;;;;;;;10.30;7.43;;;22.40;54.70;;;;;;5092974;28;20444;-79
2022/03/28 16:29:31;;;;;;;14.73;8.50;;;22.40;53.60;;;;;;5085024;28;20540;-80
2022/03/28 16:31:59;;;;;;;12.43;8.00;;;22.30;55.50;;;;;;5071467;28;20502;-79
2022/03/28 16:34:26;;;;;;;11.73;7.90;;;22.30;54.60;;;;;;5071576;28;20444;-80
2022/03/28 16:36:53;;;;;;;11.50;7.70;;;22.20;54.30;;;;;;5070770;28;20904;-80
2022/03/28 16:39:20;;;;;;;12.30;7.57;;;22.10;56.10;;;;;;5071304;28;20492;-80
2022/03/28 16:41:49;;;;;;;12.20;7.50;;;22.10;55.40;;;;;;5071599;28;20464;-79
2022/03/28 16:44:15;;;;;;;12.53;7.97;;;22.10;55.00;;;;;;5071360;28;20448;-79
2022/03/28 16:46:42;;;;;;;12.77;8.10;;;22.00;55.50;;;;;;5071702;28;20554;-79